createdAt,value
2022-11-13T00:00:52.137Z,12.23
2022-11-13T00:03:18.594Z,11.73
2022-11-13T00:05:45.021Z,17.27
2022-11-13T00:08:11.433Z,13.80
2022-11-13T00:10:38.665Z,15.00
2022-11-13T00:13:05.030Z,12.45
2022-11-13T00:15:31.442Z,11.80
2022-11-13T00:18:01.373Z,16.52
2022-11-13T00:20:27.735Z,14.43
2022-11-13T00:22:54.385Z,15.70
2022-11-13T00:25:20.689Z,14.43
2022-11-13T00:27:46.995Z,14.70
2022-11-13T00:30:18.914Z,16.52
2022-11-13T00:32:45.688Z,15.32
2022-11-13T00:35:12.084Z,14.07
2022-11-13T00:37:38.568Z,18.70
2022-11-13T00:40:05.436Z,14.80
2022-11-13T00:42:31.849Z,13.65
2022-11-13T00:44:58.143Z,12.40
2022-11-13T00:47:24.441Z,14.57
2022-11-13T00:49:50.747Z,15.38
2022-11-13T00:52:17.140Z,13.70
2022-11-13T00:54:43.443Z,15.93
2022-11-13T00:57:09.737Z,14.73
2022-11-13T00:59:36.058Z,14.93
2022-11-13T01:02:02.386Z,16.50
2022-11-13T01:04:29.154Z,15.15
2022-11-13T01:06:55.586Z,14.98
2022-11-13T01:09:21.943Z,14.48
2022-11-13T01:11:48.292Z,16.50
2022-11-13T01:14:14.665Z,16.10
2022-11-13T01:16:40.996Z,15.02
2022-11-13T01:19:07.788Z,15.95
2022-11-13T01:21:34.099Z,16.10
2022-11-13T01:24:01.053Z,15.88
2022-11-13T01:26:29.281Z,16.10
2022-11-13T01:28:57.605Z,15.00
2022-11-13T01:31:26.353Z,14.75
2022-11-13T01:33:52.919Z,17.10
2022-11-13T01:36:23.233Z,15.93
2022-11-13T01:38:50.522Z,16.37
2022-11-13T01:41:29.750Z,15.32
2022-11-13T01:43:57.505Z,17.02
2022-11-13T01:46:39.830Z,18.08
2022-11-13T01:49:09.162Z,14.18
2022-11-13T01:51:48.456Z,16.58
2022-11-13T01:54:20.289Z,17.95
2022-11-13T01:56:48.424Z,17.85
2022-11-13T01:59:21.521Z,17.60
2022-11-13T02:01:47.997Z,16.23
2022-11-13T02:04:14.751Z,15.82
2022-11-13T02:06:48.200Z,14.02
2022-11-13T02:09:16.236Z,14.65
2022-11-13T02:11:42.610Z,14.00
2022-11-13T02:14:10.669Z,14.48
2022-11-13T02:16:37.993Z,17.95
2022-11-13T02:19:12.345Z,17.17
2022-11-13T02:21:52.873Z,17.27
2022-11-13T02:24:37.825Z,15.52
2022-11-13T02:27:10.745Z,17.40
2022-11-13T02:29:37.048Z,16.92
2022-11-13T02:32:03.370Z,13.93
2022-11-13T02:34:29.691Z,14.25
2022-11-13T02:36:56.034Z,17.08
2022-11-13T02:39:22.342Z,14.85
2022-11-13T02:41:48.680Z,17.48
2022-11-13T02:44:14.959Z,14.13
2022-11-13T02:46:41.296Z,15.70
2022-11-13T02:49:07.646Z,17.08
2022-11-13T02:51:33.924Z,15.30
2022-11-13T02:54:00.232Z,13.85
2022-11-13T02:56:26.546Z,16.23
2022-11-13T02:58:52.832Z,15.57
2022-11-13T03:01:19.217Z,14.52
2022-11-13T03:03:57.565Z,14.52
2022-11-13T03:06:24.561Z,11.18
2022-11-13T03:08:50.886Z,14.27
2022-11-13T03:11:17.229Z,14.25
2022-11-13T03:13:43.508Z,13.52
2022-11-13T03:16:12.714Z,13.55
2022-11-13T03:18:39.470Z,14.40
2022-11-13T03:21:08.307Z,12.00
2022-11-13T03:23:34.670Z,14.10
2022-11-13T03:26:09.694Z,14.30
2022-11-13T03:28:36.931Z,12.07
2022-11-13T03:31:04.320Z,10.93
2022-11-13T03:33:31.241Z,13.40
2022-11-13T03:35:57.783Z,11.98
2022-11-13T03:38:24.620Z,14.73
2022-11-13T03:40:51.067Z,12.15
2022-11-13T03:43:18.339Z,12.45
2022-11-13T03:45:46.598Z,15.45
2022-11-13T03:48:14.747Z,15.43
2022-11-13T03:50:47.956Z,14.02
2022-11-13T03:53:14.974Z,13.05
2022-11-13T03:55:42.948Z,12.88
2022-11-13T03:58:10.075Z,12.40
2022-11-13T04:00:37.652Z,12.38
2022-11-13T04:03:04.113Z,14.07
2022-11-13T04:05:30.522Z,14.55
2022-11-13T04:07:56.896Z,16.15
2022-11-13T04:10:23.721Z,14.18
2022-11-13T04:12:50.013Z,15.73
2022-11-13T04:15:16.565Z,17.30
2022-11-13T04:17:43.369Z,14.27
2022-11-13T04:20:10.826Z,15.23
2022-11-13T04:22:37.234Z,13.30
2022-11-13T04:25:04.678Z,16.55
2022-11-13T04:27:31.111Z,15.68
2022-11-13T04:29:57.434Z,12.77
2022-11-13T04:32:23.802Z,14.38
2022-11-13T04:34:50.077Z,12.77
2022-11-13T04:37:16.440Z,12.85
2022-11-13T04:39:42.731Z,7.93
2022-11-13T04:42:29.647Z,5.35
2022-11-13T04:44:56.330Z,6.40
2022-11-13T04:47:22.700Z,5.78
2022-11-13T04:49:49.084Z,6.30
2022-11-13T04:52:15.464Z,8.10
2022-11-13T04:54:41.777Z,5.65
2022-11-13T04:57:08.144Z,6.32
2022-11-13T04:59:34.496Z,6.78
2022-11-13T05:02:00.953Z,6.78
2022-11-13T05:04:27.290Z,6.57
2022-11-13T05:06:53.674Z,7.80
2022-11-13T05:09:20.093Z,8.65
2022-11-13T05:11:46.602Z,7.13
2022-11-13T05:14:14.274Z,5.40
2022-11-13T05:16:40.611Z,6.03
2022-11-13T05:19:07.021Z,7.30
2022-11-13T05:21:38.723Z,5.90
2022-11-13T05:24:05.714Z,5.55
2022-11-13T05:26:32.209Z,7.88
2022-11-13T05:28:59.741Z,6.72
2022-11-13T05:31:26.458Z,7.22
2022-11-13T05:33:53.729Z,6.30
2022-11-13T05:36:21.154Z,3.42
2022-11-13T05:38:47.812Z,7.32
2022-11-13T05:41:20.466Z,7.95
2022-11-13T05:43:47.010Z,5.22
2022-11-13T05:46:15.186Z,6.90
2022-11-13T05:48:42.497Z,8.93
2022-11-13T05:51:20.541Z,8.13
2022-11-13T05:53:47.183Z,9.07
2022-11-13T05:56:23.316Z,7.82
2022-11-13T05:58:51.016Z,9.23
2022-11-13T06:01:32.445Z,9.52
2022-11-13T06:04:00.555Z,7.88
2022-11-13T06:06:28.748Z,7.90
2022-11-13T06:08:56.565Z,8.25
2022-11-13T06:11:25.727Z,8.43
2022-11-13T06:13:53.808Z,10.25
2022-11-13T06:16:26.338Z,8.85
2022-11-13T06:18:58.054Z,9.63
2022-11-13T06:21:26.991Z,10.32
2022-11-13T06:23:53.751Z,10.05
2022-11-13T06:26:27.007Z,5.70
2022-11-13T06:28:53.587Z,9.68
2022-11-13T06:31:25.798Z,9.20
2022-11-13T06:33:52.280Z,9.57
2022-11-13T06:36:27.134Z,10.07
2022-11-13T06:38:53.525Z,9.70
2022-11-13T06:41:22.662Z,9.25
2022-11-13T06:43:49.799Z,9.00
2022-11-13T06:46:19.183Z,11.48
2022-11-13T06:48:45.850Z,11.35
2022-11-13T06:51:15.629Z,9.25
2022-11-13T06:53:42.467Z,9.82
2022-11-13T06:56:09.570Z,9.63
2022-11-13T06:58:35.905Z,15.73
2022-11-13T07:01:20.001Z,9.75
2022-11-13T07:03:46.903Z,13.00
2022-11-13T07:06:16.102Z,12.77
2022-11-13T07:08:43.364Z,10.93
2022-11-13T07:11:12.165Z,13.70
2022-11-13T07:13:38.918Z,13.10
2022-11-13T07:16:16.413Z,12.70
2022-11-13T07:18:44.555Z,12.15
2022-11-13T07:21:12.559Z,12.68
2022-11-13T07:23:43.311Z,13.35
2022-11-13T07:26:11.171Z,13.27
2022-11-13T07:28:38.517Z,11.60
2022-11-13T07:31:05.857Z,13.75
2022-11-13T07:33:32.431Z,12.07
2022-11-13T07:36:00.120Z,12.93
2022-11-13T07:38:26.749Z,11.27
2022-11-13T07:40:53.454Z,13.77
2022-11-13T07:43:19.789Z,11.95
2022-11-13T07:45:46.204Z,12.23
2022-11-13T07:48:12.754Z,12.07
2022-11-13T07:50:39.456Z,11.55
2022-11-13T07:53:08.275Z,10.88
2022-11-13T07:55:35.459Z,12.18
2022-11-13T07:58:02.789Z,12.63
2022-11-13T08:00:31.058Z,11.15
2022-11-13T08:02:57.411Z,12.23
2022-11-13T08:05:23.776Z,14.20
2022-11-13T08:07:51.722Z,14.38
2022-11-13T08:10:20.098Z,15.32
2022-11-13T08:12:47.186Z,13.68
2022-11-13T08:15:14.052Z,15.27
2022-11-13T08:17:40.415Z,14.38
2022-11-13T08:20:07.601Z,12.77
2022-11-13T08:22:34.362Z,13.70
2022-11-13T08:25:00.838Z,11.80
2022-11-13T08:27:27.167Z,13.30
2022-11-13T08:29:53.475Z,14.90
2022-11-13T08:32:19.859Z,13.35
2022-11-13T08:34:46.180Z,11.93
2022-11-13T08:37:12.486Z,11.82
2022-11-13T08:39:38.800Z,12.35
2022-11-13T08:42:05.534Z,13.95
2022-11-13T08:44:31.860Z,14.88
2022-11-13T08:46:58.392Z,14.15
2022-11-13T08:49:24.736Z,13.40
2022-11-13T08:51:51.019Z,12.60
2022-11-13T08:54:17.656Z,14.20
2022-11-13T08:56:43.936Z,16.95
2022-11-13T08:59:10.745Z,15.70
2022-11-13T09:01:37.101Z,15.52
2022-11-13T09:04:03.604Z,17.60
2022-11-13T09:06:29.989Z,15.13
2022-11-13T09:08:56.525Z,15.48
2022-11-13T09:11:22.845Z,14.70
2022-11-13T09:13:53.277Z,13.70
2022-11-13T09:16:22.770Z,14.93
